Cascade, Maryland
Current Conditions -  °F | °C
As of 2:53 AM on Saturday 25 Oct 2014 (Local Time) from KHGR Reporting Station
Clear Clear  
Wind Chill: 52°   Ceiling: Unl
Heat Index: 52°   Visibility: 10mi
Dew Point: 37°   Wind: 7mph
Humidity: 57%   Direction: 230°SW
Pressure: 29.97"   Gusts: NA
Location:  39.71°N, 77.49°W
Report Text: KHGR 250653Z AUTO 23006KT 10SM CLR 11/03 A2997 RMK AO2 SLP156 T01110028
Loading
Personal Weather Stations






























Interactive Weather Map
Tropical Storm Tracking
New forecast layout! Learn more

10-Day Weather Forecast

Advertisements
Track Severe Weather on mobile